createdAt,value
2023-03-10T00:01:31.547Z,3.00
2023-03-10T00:04:00.308Z,2.90
2023-03-10T00:06:29.578Z,2.90
2023-03-10T00:08:57.435Z,3.00
2023-03-10T00:11:25.331Z,3.10
2023-03-10T00:13:53.229Z,3.10
2023-03-10T00:16:22.688Z,3.00
2023-03-10T00:18:52.467Z,3.00
2023-03-10T00:21:21.021Z,2.90
2023-03-10T00:23:49.039Z,2.80
2023-03-10T00:26:17.541Z,2.80
2023-03-10T00:28:45.756Z,2.70
2023-03-10T00:31:14.412Z,2.60
2023-03-10T00:33:42.390Z,2.60
2023-03-10T00:36:13.449Z,2.60
2023-03-10T00:38:42.106Z,2.60
2023-03-10T00:41:11.540Z,2.70
2023-03-10T00:43:39.410Z,2.80
2023-03-10T00:46:07.353Z,2.70
2023-03-10T00:48:35.801Z,2.80
2023-03-10T00:51:04.404Z,2.80
2023-03-10T00:53:34.493Z,2.80
2023-03-10T00:56:03.323Z,2.80
2023-03-10T00:58:31.328Z,2.80
2023-03-10T01:00:59.277Z,2.80
2023-03-10T01:03:27.169Z,2.70
2023-03-10T01:05:55.441Z,2.60
2023-03-10T01:08:23.292Z,2.60
2023-03-10T01:10:52.535Z,2.60
2023-03-10T01:13:20.810Z,2.60
2023-03-10T01:15:48.873Z,2.50
2023-03-10T01:18:16.977Z,2.50
2023-03-10T01:20:44.830Z,2.60
2023-03-10T01:23:14.746Z,2.50
2023-03-10T01:25:43.028Z,2.50
2023-03-10T01:28:12.415Z,2.50
2023-03-10T01:30:40.700Z,2.50
2023-03-10T01:33:09.321Z,2.50
2023-03-10T01:35:37.288Z,2.50
2023-03-10T01:38:05.522Z,2.50
2023-03-10T01:40:33.813Z,2.40
2023-03-10T01:43:31.786Z,2.50
2023-03-10T01:46:29.522Z,2.40
2023-03-10T01:49:02.012Z,2.40
2023-03-10T01:51:30.809Z,2.50
2023-03-10T01:53:58.898Z,2.50
2023-03-10T01:56:26.831Z,2.50
2023-03-10T01:58:55.200Z,2.60
2023-03-10T02:01:23.136Z,2.60
2023-03-10T02:03:52.646Z,2.60
2023-03-10T02:06:22.986Z,2.60
2023-03-10T02:08:52.561Z,2.60
2023-03-10T02:11:21.311Z,2.60
2023-03-10T02:13:49.875Z,2.60
2023-03-10T02:16:18.611Z,2.60
2023-03-10T02:18:47.896Z,2.50
2023-03-10T02:21:20.627Z,2.40
2023-03-10T02:24:00.936Z,2.40
2023-03-10T02:26:35.937Z,2.40
2023-03-10T02:29:06.679Z,2.30
2023-03-10T02:31:34.919Z,2.30
2023-03-10T02:34:03.971Z,2.30
2023-03-10T02:36:31.929Z,2.20
2023-03-10T02:38:59.781Z,2.30
2023-03-10T02:41:29.752Z,2.20
2023-03-10T02:43:59.758Z,2.20
2023-03-10T02:46:29.449Z,2.20
2023-03-10T02:49:00.009Z,2.30
2023-03-10T02:51:29.849Z,2.20
2023-03-10T02:53:57.750Z,2.30
2023-03-10T02:56:25.608Z,2.30
2023-03-10T02:58:53.484Z,2.40
2023-03-10T03:01:21.602Z,2.30
2023-03-10T03:03:50.844Z,2.30
2023-03-10T03:06:18.944Z,2.30
2023-03-10T03:08:46.789Z,2.30
2023-03-10T03:11:14.717Z,2.20
2023-03-10T03:13:42.667Z,2.20
2023-03-10T03:16:11.304Z,2.30
2023-03-10T03:18:39.490Z,2.30
2023-03-10T03:21:10.643Z,2.40
2023-03-10T03:23:38.732Z,2.40
2023-03-10T03:26:06.646Z,2.40
2023-03-10T03:28:34.500Z,2.40
2023-03-10T03:31:02.658Z,2.40
2023-03-10T03:33:30.527Z,2.40
2023-03-10T03:35:58.541Z,2.40
2023-03-10T03:38:27.761Z,2.40
2023-03-10T03:40:55.630Z,2.40
2023-03-10T03:43:23.498Z,2.40
2023-03-10T03:45:51.403Z,2.40
2023-03-10T03:48:22.272Z,2.50
2023-03-10T03:50:50.374Z,2.50
2023-03-10T03:53:18.235Z,2.50
2023-03-10T03:55:47.459Z,2.50
2023-03-10T03:58:15.332Z,2.50
2023-03-10T04:00:43.191Z,2.50
2023-03-10T04:03:11.142Z,2.60
2023-03-10T04:05:39.192Z,2.60
2023-03-10T04:08:07.191Z,2.60
2023-03-10T04:10:35.183Z,2.60
2023-03-10T04:13:04.581Z,2.60
2023-03-10T04:15:32.482Z,2.60
2023-03-10T04:18:00.373Z,2.70
2023-03-10T04:20:28.309Z,2.70
2023-03-10T04:22:56.166Z,2.60
2023-03-10T04:25:23.975Z,2.60
2023-03-10T04:27:51.975Z,2.50
2023-03-10T04:30:21.567Z,2.50
2023-03-10T04:32:49.585Z,2.40
2023-03-10T04:35:17.424Z,2.40
2023-03-10T04:37:45.481Z,2.40
2023-03-10T04:40:14.157Z,2.40
2023-03-10T04:42:42.370Z,2.40
2023-03-10T04:45:10.773Z,2.30
2023-03-10T04:47:40.038Z,2.30
2023-03-10T04:50:08.306Z,2.40
2023-03-10T04:52:36.228Z,2.40
2023-03-10T04:55:04.199Z,2.40
2023-03-10T04:57:32.033Z,2.40
2023-03-10T05:00:02.583Z,2.40
2023-03-10T05:02:32.796Z,2.30
2023-03-10T05:05:02.441Z,2.30
2023-03-10T05:07:30.344Z,2.30
2023-03-10T05:09:58.912Z,2.20
2023-03-10T05:12:26.726Z,2.20
2023-03-10T05:14:54.609Z,2.20
2023-03-10T05:17:22.520Z,2.20
2023-03-10T05:19:50.371Z,2.20
2023-03-10T05:22:19.596Z,2.20
2023-03-10T05:24:47.968Z,2.20
2023-03-10T05:27:18.415Z,2.20
2023-03-10T05:29:46.250Z,2.20
2023-03-10T05:32:14.177Z,2.20
2023-03-10T05:34:42.067Z,2.20
2023-03-10T05:37:09.943Z,2.20
2023-03-10T05:39:39.189Z,2.30
2023-03-10T05:42:07.269Z,2.30
2023-03-10T05:44:35.131Z,2.30
2023-03-10T05:47:03.278Z,2.40
2023-03-10T05:49:31.309Z,2.40
2023-03-10T05:51:59.259Z,2.50
2023-03-10T05:54:27.512Z,2.50
2023-03-10T05:56:56.730Z,2.60
2023-03-10T05:59:24.639Z,2.70
2023-03-10T06:01:52.552Z,2.80
2023-03-10T06:04:20.443Z,2.80
2023-03-10T06:06:48.383Z,2.90
2023-03-10T06:09:16.249Z,3.00
2023-03-10T06:11:44.110Z,3.10
2023-03-10T06:14:13.293Z,3.20
2023-03-10T06:16:41.194Z,3.30
2023-03-10T06:19:09.083Z,3.40
2023-03-10T06:21:36.938Z,3.50
2023-03-10T06:24:04.921Z,3.60
2023-03-10T06:26:32.836Z,3.80
2023-03-10T06:29:00.688Z,3.90
2023-03-10T06:31:30.002Z,4.00
2023-03-10T06:33:58.798Z,4.10
2023-03-10T06:36:27.875Z,4.20
2023-03-10T06:38:56.076Z,4.30
2023-03-10T06:41:24.181Z,4.40
2023-03-10T06:43:52.074Z,4.50
2023-03-10T06:46:20.016Z,4.70
2023-03-10T06:48:50.477Z,4.80
2023-03-10T06:51:19.704Z,4.90
2023-03-10T06:53:49.118Z,5.10
2023-03-10T06:56:18.486Z,5.30
2023-03-10T06:58:46.654Z,5.50
2023-03-10T07:01:21.498Z,5.70
2023-03-10T07:03:50.829Z,6.00
2023-03-10T07:06:18.692Z,6.20
2023-03-10T07:08:46.634Z,6.50
2023-03-10T07:11:14.883Z,6.80
2023-03-10T07:13:42.968Z,7.00
2023-03-10T07:16:10.864Z,7.30
2023-03-10T07:18:38.734Z,7.60
2023-03-10T07:21:09.817Z,7.90
2023-03-10T07:23:37.810Z,8.10
2023-03-10T07:26:08.546Z,8.40
2023-03-10T07:28:36.719Z,8.70
2023-03-10T07:31:05.161Z,9.00
2023-03-10T07:33:33.148Z,9.20
2023-03-10T07:36:04.723Z,9.40
2023-03-10T07:38:34.187Z,9.60
2023-03-10T07:41:02.254Z,9.80
2023-03-10T07:43:30.933Z,10.00
2023-03-10T07:45:59.159Z,10.10
2023-03-10T07:48:27.025Z,10.10
2023-03-10T07:50:58.557Z,10.10
2023-03-10T07:53:26.637Z,10.10
2023-03-10T07:55:55.835Z,10.20
2023-03-10T07:58:24.306Z,10.20
2023-03-10T08:00:56.188Z,10.20
2023-03-10T08:03:24.388Z,10.30
2023-03-10T08:05:52.359Z,10.40
2023-03-10T08:08:20.264Z,10.30
2023-03-10T08:10:48.156Z,10.40
2023-03-10T08:13:17.418Z,10.40
2023-03-10T08:15:45.319Z,10.40
2023-03-10T08:18:13.208Z,10.50
2023-03-10T08:20:41.107Z,10.50
2023-03-10T08:23:08.985Z,10.50
2023-03-10T08:25:38.416Z,10.60
2023-03-10T08:28:06.894Z,10.60
2023-03-10T08:30:36.672Z,10.60
2023-03-10T08:33:07.581Z,10.50
2023-03-10T08:35:35.485Z,10.50
2023-03-10T08:38:04.170Z,10.50
2023-03-10T08:40:32.243Z,10.50
2023-03-10T08:43:00.104Z,10.40
2023-03-10T08:45:28.230Z,10.40
2023-03-10T08:47:57.462Z,10.40
2023-03-10T08:50:25.418Z,10.30
2023-03-10T08:52:53.484Z,10.30
2023-03-10T08:55:21.416Z,10.30
2023-03-10T08:57:49.264Z,10.30
2023-03-10T09:00:17.955Z,10.20
2023-03-10T09:02:45.846Z,10.20
2023-03-10T09:05:15.079Z,10.30
2023-03-10T09:07:42.988Z,10.20
2023-03-10T09:10:11.306Z,10.10
2023-03-10T09:12:39.464Z,10.10
2023-03-10T09:15:07.868Z,10.10
2023-03-10T09:17:35.721Z,10.00
2023-03-10T09:20:06.359Z,10.00
2023-03-10T09:22:35.643Z,10.00
2023-03-10T09:25:03.465Z,10.00
2023-03-10T09:27:31.316Z,10.00
2023-03-10T09:30:01.165Z,10.00
2023-03-10T09:32:29.604Z,10.00
2023-03-10T09:34:57.467Z,10.10
2023-03-10T09:37:25.377Z,10.10
2023-03-10T09:39:54.617Z,10.10
2023-03-10T09:42:37.345Z,10.10
2023-03-10T09:45:18.856Z,10.20
2023-03-10T09:47:50.892Z,10.20
2023-03-10T09:50:24.782Z,10.30
2023-03-10T09:52:57.258Z,10.30
2023-03-10T09:55:28.439Z,10.30
2023-03-10T09:57:57.591Z,10.40
2023-03-10T10:00:27.793Z,10.40
2023-03-10T10:03:00.818Z,10.50
2023-03-10T10:05:32.750Z,10.60
2023-03-10T10:08:01.994Z,10.70
2023-03-10T10:10:32.370Z,10.80
2023-03-10T10:13:02.247Z,11.00
2023-03-10T10:15:34.232Z,11.20
2023-03-10T10:18:18.362Z,11.30
2023-03-10T10:20:48.494Z,11.50
2023-03-10T10:23:19.805Z,11.70
2023-03-10T10:25:50.475Z,11.80
2023-03-10T10:28:24.808Z,11.90
2023-03-10T10:30:52.718Z,12.10
2023-03-10T10:33:20.577Z,12.20
2023-03-10T10:36:00.563Z,12.40
2023-03-10T10:38:30.084Z,12.50
2023-03-10T10:41:01.064Z,12.50
2023-03-10T10:43:29.340Z,12.60
2023-03-10T10:45:58.299Z,12.70
2023-03-10T10:48:33.182Z,12.80
2023-03-10T10:51:01.038Z,12.80
2023-03-10T10:53:34.233Z,12.90
2023-03-10T10:56:05.061Z,12.90
2023-03-10T10:58:34.006Z,13.00
2023-03-10T11:01:03.039Z,13.00
2023-03-10T11:03:33.339Z,12.90
2023-03-10T11:06:02.991Z,12.80
2023-03-10T11:08:34.776Z,12.90
2023-03-10T11:11:09.277Z,13.00
2023-03-10T11:13:40.080Z,13.10
2023-03-10T11:16:12.331Z,13.10
2023-03-10T11:18:44.570Z,13.10
2023-03-10T11:21:14.554Z,13.10
2023-03-10T11:23:46.417Z,13.10
2023-03-10T11:26:19.091Z,13.00
2023-03-10T11:28:50.324Z,13.00
2023-03-10T11:31:24.442Z,13.00
2023-03-10T11:33:57.053Z,12.90
2023-03-10T11:36:31.102Z,12.90
2023-03-10T11:39:03.060Z,13.00
2023-03-10T11:41:34.784Z,13.10
2023-03-10T11:44:08.465Z,13.20
2023-03-10T11:46:44.467Z,13.30
2023-03-10T11:49:13.203Z,13.20
2023-03-10T11:51:43.567Z,13.40
2023-03-10T11:54:16.269Z,13.40
2023-03-10T11:56:45.892Z,13.50
2023-03-10T11:59:16.418Z,13.60
2023-03-10T12:01:46.882Z,13.70
2023-03-10T12:04:17.292Z,13.70
2023-03-10T12:06:47.486Z,13.70
2023-03-10T12:09:18.276Z,13.70
2023-03-10T12:11:48.704Z,13.70
2023-03-10T12:14:16.631Z,13.80
2023-03-10T12:16:44.737Z,13.80
2023-03-10T12:19:12.597Z,13.80
2023-03-10T12:21:40.503Z,13.80
2023-03-10T12:24:28.754Z,13.80
2023-03-10T12:27:05.004Z,13.80
2023-03-10T12:29:34.385Z,13.80
2023-03-10T12:32:02.699Z,13.80
2023-03-10T12:34:32.120Z,13.80
2023-03-10T12:37:08.165Z,13.80
2023-03-10T12:39:40.372Z,13.70
2023-03-10T12:42:29.506Z,13.80
2023-03-10T12:45:07.081Z,13.70
2023-03-10T12:47:46.010Z,13.80
2023-03-10T12:50:20.129Z,13.90
2023-03-10T12:52:51.080Z,13.90
2023-03-10T12:55:21.080Z,13.90
2023-03-10T12:57:57.474Z,13.90
2023-03-10T13:00:36.490Z,13.90
2023-03-10T13:03:06.165Z,14.00
2023-03-10T13:05:35.285Z,14.00
2023-03-10T13:08:05.735Z,14.10
2023-03-10T13:10:34.226Z,14.20
2023-03-10T13:13:05.615Z,14.20
2023-03-10T13:15:34.608Z,14.40
2023-03-10T13:18:12.678Z,14.50
2023-03-10T13:20:40.584Z,14.40
2023-03-10T13:23:19.369Z,14.50
2023-03-10T13:25:52.206Z,14.50
2023-03-10T13:28:21.457Z,14.40
2023-03-10T13:30:49.291Z,14.40
2023-03-10T13:33:19.775Z,14.30
2023-03-10T13:35:48.261Z,14.40
2023-03-10T13:38:17.739Z,14.40
2023-03-10T13:40:46.744Z,14.50
2023-03-10T13:43:33.576Z,14.50
2023-03-10T13:46:03.052Z,14.50
2023-03-10T13:48:32.195Z,14.60
2023-03-10T13:51:16.903Z,14.60
2023-03-10T13:53:45.298Z,14.70
2023-03-10T13:56:18.205Z,14.70
2023-03-10T13:58:48.124Z,14.60
2023-03-10T14:01:18.369Z,14.70
2023-03-10T14:03:50.142Z,14.60
2023-03-10T14:06:18.016Z,14.60
2023-03-10T14:08:45.898Z,14.60
2023-03-10T14:11:24.164Z,14.50
2023-03-10T14:13:53.413Z,14.40
2023-03-10T14:16:21.333Z,14.30
2023-03-10T14:18:49.331Z,14.30
2023-03-10T14:21:24.166Z,14.10
2023-03-10T14:23:53.500Z,14.00
2023-03-10T14:26:21.360Z,14.00
2023-03-10T14:28:49.261Z,14.00
2023-03-10T14:31:21.872Z,14.00
2023-03-10T14:33:49.854Z,14.00
2023-03-10T14:36:17.930Z,13.90
2023-03-10T14:38:46.007Z,13.90
2023-03-10T14:41:14.711Z,13.80
2023-03-10T14:43:43.112Z,13.80
2023-03-10T14:46:11.488Z,13.70
2023-03-10T14:48:41.951Z,13.60
2023-03-10T14:51:17.836Z,13.60
2023-03-10T14:53:50.555Z,13.50
2023-03-10T14:56:19.753Z,13.30
2023-03-10T14:58:48.700Z,13.20
2023-03-10T15:01:18.177Z,13.00
2023-03-10T15:03:49.030Z,12.80
2023-03-10T15:06:18.770Z,12.70
2023-03-10T15:08:46.756Z,12.50
2023-03-10T15:11:17.455Z,12.40
2023-03-10T15:13:49.357Z,12.20
2023-03-10T15:16:17.358Z,12.00
2023-03-10T15:18:47.049Z,11.90
2023-03-10T15:21:16.514Z,11.70
2023-03-10T15:23:44.385Z,11.70
2023-03-10T15:26:12.866Z,11.70
2023-03-10T15:28:41.039Z,11.60
2023-03-10T15:31:08.987Z,11.60
2023-03-10T15:33:36.869Z,11.60
2023-03-10T15:36:06.128Z,11.60
2023-03-10T15:38:35.377Z,11.70
2023-03-10T15:41:05.624Z,11.70
2023-03-10T15:43:33.698Z,11.80
2023-03-10T15:46:06.014Z,11.90
2023-03-10T15:48:34.211Z,11.80
2023-03-10T15:51:02.097Z,11.90
2023-03-10T15:53:29.962Z,11.80
2023-03-10T15:55:59.189Z,11.70
2023-03-10T15:58:27.029Z,11.60
2023-03-10T16:00:54.921Z,11.50
2023-03-10T16:03:22.769Z,11.40
2023-03-10T16:05:50.628Z,11.30
2023-03-10T16:08:19.938Z,11.20
2023-03-10T16:10:54.634Z,11.10
2023-03-10T16:13:24.930Z,10.90
2023-03-10T16:15:53.335Z,10.80
2023-03-10T16:18:21.222Z,10.70
2023-03-10T16:20:55.793Z,10.60
2023-03-10T16:23:23.646Z,10.60
2023-03-10T16:26:03.157Z,10.40
2023-03-10T16:28:32.410Z,10.40
2023-03-10T16:31:00.649Z,10.30
2023-03-10T16:33:28.523Z,10.20
2023-03-10T16:35:58.877Z,10.00
2023-03-10T16:38:26.830Z,9.90
2023-03-10T16:40:55.147Z,9.90
2023-03-10T16:43:23.073Z,9.90
2023-03-10T16:45:52.429Z,10.00
2023-03-10T16:48:20.627Z,10.10
2023-03-10T16:50:49.919Z,10.10
2023-03-10T16:53:17.907Z,10.10
2023-03-10T16:55:45.741Z,10.20
2023-03-10T16:58:13.617Z,10.10
2023-03-10T17:00:41.548Z,10.10
2023-03-10T17:03:10.823Z,10.10
2023-03-10T17:05:39.215Z,10.00
2023-03-10T17:08:07.167Z,10.10
2023-03-10T17:10:35.905Z,10.00
2023-03-10T17:13:03.759Z,10.00
2023-03-10T17:15:31.634Z,9.80
2023-03-10T17:18:00.631Z,9.70
2023-03-10T17:20:29.855Z,9.80
2023-03-10T17:22:57.751Z,9.70
2023-03-10T17:25:25.661Z,9.60
2023-03-10T17:27:53.834Z,9.60
2023-03-10T17:30:21.812Z,9.50
2023-03-10T17:32:50.368Z,9.40
2023-03-10T17:35:18.334Z,9.40
2023-03-10T17:37:47.543Z,9.30
2023-03-10T17:40:17.269Z,9.20
2023-03-10T17:42:45.133Z,9.20
2023-03-10T17:45:13.149Z,9.20
2023-03-10T17:47:41.124Z,9.20
2023-03-10T17:50:09.526Z,9.30
2023-03-10T17:52:37.442Z,9.30
2023-03-10T17:55:07.357Z,9.30
2023-03-10T17:57:35.212Z,9.20
2023-03-10T18:00:03.517Z,9.10
2023-03-10T18:02:31.468Z,9.00
2023-03-10T18:05:00.277Z,8.90
2023-03-10T18:07:29.473Z,8.90
2023-03-10T18:09:58.224Z,8.80
2023-03-10T18:12:27.532Z,8.80
2023-03-10T18:14:55.371Z,8.90
2023-03-10T18:17:23.261Z,8.90
2023-03-10T18:19:51.629Z,8.90
2023-03-10T18:22:19.465Z,8.90
2023-03-10T18:24:47.312Z,8.80
2023-03-10T18:27:15.189Z,8.80
2023-03-10T18:29:44.468Z,8.80
2023-03-10T18:32:12.460Z,8.80
2023-03-10T18:34:40.373Z,8.80
2023-03-10T18:37:08.242Z,8.80
2023-03-10T18:39:36.204Z,8.90
2023-03-10T18:42:04.142Z,8.90
2023-03-10T18:44:32.026Z,9.00
2023-03-10T18:47:01.257Z,8.90
2023-03-10T18:49:29.561Z,8.90
2023-03-10T18:51:57.456Z,8.90
2023-03-10T18:54:25.312Z,8.90
2023-03-10T18:56:53.184Z,8.80
2023-03-10T18:59:21.062Z,8.80
2023-03-10T19:01:49.509Z,8.90
2023-03-10T19:04:18.894Z,8.80
2023-03-10T19:06:46.902Z,8.80
2023-03-10T19:09:15.405Z,8.80
2023-03-10T19:11:43.328Z,8.80
2023-03-10T19:14:11.411Z,8.80
2023-03-10T19:16:40.621Z,8.70
2023-03-10T19:19:09.332Z,8.70
2023-03-10T19:21:38.728Z,8.60
2023-03-10T19:24:06.847Z,8.60
2023-03-10T19:26:34.706Z,8.60
2023-03-10T19:29:02.689Z,8.50
2023-03-10T19:31:30.729Z,8.50
2023-03-10T19:33:58.711Z,8.50
2023-03-10T19:36:27.037Z,8.40
2023-03-10T19:38:56.296Z,8.30
2023-03-10T19:41:24.454Z,8.30
2023-03-10T19:43:52.360Z,8.30
2023-03-10T19:46:20.472Z,8.40
2023-03-10T19:48:48.378Z,8.30
2023-03-10T19:51:20.863Z,8.40
2023-03-10T19:53:48.850Z,8.40
2023-03-10T19:56:19.063Z,8.40
2023-03-10T19:58:47.199Z,8.40
2023-03-10T20:01:15.568Z,8.40
2023-03-10T20:03:44.086Z,8.30
2023-03-10T20:06:12.078Z,8.30
2023-03-10T20:08:39.968Z,8.30
2023-03-10T20:11:11.729Z,8.20
2023-03-10T20:13:41.565Z,8.30
2023-03-10T20:16:09.523Z,8.20
2023-03-10T20:18:38.732Z,8.20
2023-03-10T20:21:07.090Z,8.10
2023-03-10T20:23:35.633Z,8.10
2023-03-10T20:26:03.590Z,8.00
2023-03-10T20:28:31.561Z,8.00
2023-03-10T20:31:01.007Z,8.00
2023-03-10T20:33:29.076Z,7.90
2023-03-10T20:35:56.942Z,7.80
2023-03-10T20:38:24.831Z,7.70
2023-03-10T20:40:52.662Z,7.70
2023-03-10T20:43:20.960Z,7.60
2023-03-10T20:45:51.458Z,7.60
2023-03-10T20:48:20.742Z,7.60
2023-03-10T20:50:53.838Z,7.50
2023-03-10T20:53:21.707Z,7.50
2023-03-10T20:55:49.565Z,7.50
2023-03-10T20:58:17.401Z,7.40
2023-03-10T21:00:47.055Z,7.30
2023-03-10T21:03:15.277Z,7.30
2023-03-10T21:05:44.568Z,7.20
2023-03-10T21:08:12.484Z,7.20
2023-03-10T21:10:40.988Z,7.20
2023-03-10T21:13:08.876Z,7.20
2023-03-10T21:15:36.802Z,7.10
2023-03-10T21:18:04.764Z,7.10
2023-03-10T21:20:32.637Z,7.00
2023-03-10T21:23:01.925Z,7.00
2023-03-10T21:25:29.882Z,7.00
2023-03-10T21:27:59.704Z,6.80
2023-03-10T21:30:29.468Z,6.80
2023-03-10T21:32:57.746Z,6.80
2023-03-10T21:35:25.689Z,6.80
2023-03-10T21:37:55.442Z,6.70
2023-03-10T21:40:24.829Z,6.80
2023-03-10T21:42:52.748Z,6.80
2023-03-10T21:45:21.603Z,6.70
2023-03-10T21:47:49.451Z,6.70
2023-03-10T21:50:17.680Z,6.70
2023-03-10T21:52:46.029Z,6.70
2023-03-10T21:55:16.939Z,6.70
2023-03-10T21:57:46.175Z,6.70
2023-03-10T22:00:14.850Z,6.70
2023-03-10T22:02:42.676Z,6.60
2023-03-10T22:05:12.607Z,6.60
2023-03-10T22:07:40.502Z,6.60
2023-03-10T22:10:09.061Z,6.50
2023-03-10T22:12:37.704Z,6.40
2023-03-10T22:15:07.983Z,6.30
2023-03-10T22:17:35.951Z,6.20
2023-03-10T22:20:07.009Z,6.20
2023-03-10T22:22:34.913Z,6.10
2023-03-10T22:25:02.856Z,6.10
2023-03-10T22:27:30.692Z,6.10
2023-03-10T22:29:58.541Z,6.00
2023-03-10T22:32:27.822Z,6.00
2023-03-10T22:34:55.669Z,6.10
2023-03-10T22:37:23.534Z,6.00
2023-03-10T22:39:51.394Z,6.00
2023-03-10T22:42:19.269Z,5.90
2023-03-10T22:44:47.161Z,5.90
2023-03-10T22:47:15.045Z,5.80
2023-03-10T22:49:44.318Z,5.80
2023-03-10T22:52:12.272Z,5.80
2023-03-10T22:54:40.128Z,5.90
2023-03-10T22:57:07.985Z,5.90
2023-03-10T22:59:35.814Z,5.90
2023-03-10T23:02:04.016Z,5.90
2023-03-10T23:04:31.918Z,5.90
2023-03-10T23:07:01.106Z,5.90
2023-03-10T23:09:29.084Z,5.90
2023-03-10T23:11:56.957Z,6.00
2023-03-10T23:14:24.815Z,5.90
2023-03-10T23:16:52.648Z,5.90
2023-03-10T23:19:20.724Z,5.90
2023-03-10T23:21:48.607Z,6.00
2023-03-10T23:24:17.800Z,5.90
2023-03-10T23:26:45.833Z,5.90
2023-03-10T23:29:13.688Z,5.90
2023-03-10T23:31:41.571Z,5.90
2023-03-10T23:34:09.486Z,5.90
2023-03-10T23:36:37.336Z,5.90
2023-03-10T23:39:05.430Z,5.80
2023-03-10T23:41:34.671Z,5.90
2023-03-10T23:44:03.194Z,5.50
2023-03-10T23:46:31.890Z,5.30
2023-03-10T23:48:59.768Z,4.90
2023-03-10T23:51:28.905Z,4.60
2023-03-10T23:53:56.740Z,4.50
2023-03-10T23:56:24.630Z,4.30
2023-03-10T23:58:53.827Z,4.10
